createdAt,value
2018-08-25T00:00:27.275Z,959.37
2018-08-25T00:01:27.255Z,959.36
2018-08-25T00:02:27.235Z,959.37
2018-08-25T00:03:27.216Z,959.38
2018-08-25T00:04:27.199Z,959.41
2018-08-25T00:05:27.180Z,959.39
2018-08-25T00:06:27.164Z,959.35
2018-08-25T00:07:27.141Z,959.35
2018-08-25T00:08:27.123Z,959.34
2018-08-25T00:09:27.105Z,959.33
2018-08-25T00:10:27.084Z,959.34
2018-08-25T00:11:27.066Z,959.33
2018-08-25T00:12:27.046Z,959.30
2018-08-25T00:13:27.031Z,959.26
2018-08-25T00:14:27.008Z,959.29
2018-08-25T00:15:26.990Z,959.28
2018-08-25T00:16:26.972Z,959.27
2018-08-25T00:17:27.703Z,959.27
2018-08-25T00:18:26.935Z,959.26
2018-08-25T00:19:26.914Z,959.25
2018-08-25T00:20:26.896Z,959.25
2018-08-25T00:21:26.876Z,959.26
2018-08-25T00:22:26.857Z,959.28
2018-08-25T00:23:26.839Z,959.27
2018-08-25T00:24:26.821Z,959.29
2018-08-25T00:25:26.801Z,959.26
2018-08-25T00:26:26.783Z,959.28
2018-08-25T00:27:26.765Z,959.24
2018-08-25T00:28:26.748Z,959.28
2018-08-25T00:29:26.727Z,959.24
2018-08-25T00:30:26.708Z,959.22
2018-08-25T00:31:26.689Z,959.21
2018-08-25T00:32:26.671Z,959.22
2018-08-25T00:33:27.411Z,959.20
2018-08-25T00:34:26.633Z,959.15
2018-08-25T00:35:26.614Z,959.11
2018-08-25T00:36:26.595Z,959.12
2018-08-25T00:37:26.577Z,959.10
2018-08-25T00:38:26.558Z,959.09
2018-08-25T00:39:26.541Z,959.03
2018-08-25T00:40:26.520Z,959.03
2018-08-25T00:41:26.507Z,959.01
2018-08-25T00:42:26.484Z,959.00
2018-08-25T00:43:26.466Z,958.93
2018-08-25T00:44:26.446Z,958.91
2018-08-25T00:45:26.436Z,958.95
2018-08-25T00:46:26.408Z,958.90
2018-08-25T00:47:26.391Z,958.88
2018-08-25T00:48:26.372Z,958.90
2018-08-25T00:49:26.354Z,958.86
2018-08-25T00:50:26.334Z,958.85
2018-08-25T00:51:26.320Z,958.81
2018-08-25T00:52:26.299Z,958.85
2018-08-25T00:53:26.280Z,958.86
2018-08-25T00:54:26.260Z,958.94
2018-08-25T00:55:26.243Z,958.89
2018-08-25T00:56:26.225Z,958.92
2018-08-25T00:57:26.235Z,958.89
2018-08-25T00:58:26.185Z,958.92
2018-08-25T00:59:26.974Z,958.89
2018-08-25T01:00:26.149Z,958.86
2018-08-25T01:01:26.134Z,958.88
2018-08-25T01:02:26.112Z,958.87
2018-08-25T01:03:26.093Z,958.87
2018-08-25T01:04:26.079Z,958.88
2018-08-25T01:05:26.058Z,958.89
2018-08-25T01:06:26.039Z,958.94
2018-08-25T01:07:26.019Z,958.92
2018-08-25T01:08:26.002Z,958.95
2018-08-25T01:09:25.983Z,958.95
2018-08-25T01:10:25.964Z,958.94
2018-08-25T01:11:25.945Z,958.90
2018-08-25T01:12:25.928Z,958.93
2018-08-25T01:13:25.909Z,958.93
2018-08-25T01:14:25.890Z,958.90
2018-08-25T01:15:25.871Z,958.88
2018-08-25T01:16:25.853Z,958.85
2018-08-25T01:17:25.836Z,958.80
2018-08-25T01:18:25.816Z,958.84
2018-08-25T01:19:25.799Z,958.84
2018-08-25T01:20:25.780Z,958.84
2018-08-25T01:21:25.763Z,958.82
2018-08-25T01:22:25.742Z,958.84
2018-08-25T01:23:25.727Z,958.86
2018-08-25T01:24:25.704Z,958.83
2018-08-25T01:25:25.687Z,958.87
2018-08-25T01:26:25.667Z,958.87
2018-08-25T01:27:25.648Z,958.87
2018-08-25T01:28:25.632Z,958.88
2018-08-25T01:29:25.614Z,958.86
2018-08-25T01:30:25.593Z,958.85
2018-08-25T01:31:26.326Z,958.85
2018-08-25T01:32:25.556Z,958.83
2018-08-25T01:33:25.539Z,958.82
2018-08-25T01:34:25.518Z,958.82
2018-08-25T01:35:25.501Z,958.83
2018-08-25T01:36:25.485Z,958.82
2018-08-25T01:37:25.464Z,958.84
2018-08-25T01:38:25.445Z,958.83
2018-08-25T01:39:25.426Z,958.85
2018-08-25T01:40:25.407Z,958.86
2018-08-25T01:41:25.390Z,958.89
2018-08-25T01:42:25.371Z,958.89
2018-08-25T01:43:25.351Z,958.86
2018-08-25T01:44:25.333Z,958.86
2018-08-25T01:45:25.315Z,958.78
2018-08-25T01:46:25.295Z,958.83
2018-08-25T01:47:25.276Z,958.79
2018-08-25T01:48:25.259Z,958.78
2018-08-25T01:49:25.242Z,958.74
2018-08-25T01:50:25.221Z,958.74
2018-08-25T01:51:25.203Z,958.77
2018-08-25T01:52:25.184Z,958.72
2018-08-25T01:53:25.166Z,958.75
2018-08-25T01:54:25.154Z,958.75
2018-08-25T01:55:25.129Z,958.74
2018-08-25T01:56:25.112Z,958.75
2018-08-25T01:57:25.092Z,958.76
2018-08-25T01:58:25.073Z,958.76
2018-08-25T01:59:25.055Z,958.73
2018-08-25T02:00:25.036Z,958.71
2018-08-25T02:01:25.018Z,958.71
2018-08-25T02:02:24.998Z,958.76
2018-08-25T02:03:24.979Z,958.75
2018-08-25T02:04:24.961Z,958.75
2018-08-25T02:05:24.943Z,958.75
2018-08-25T02:06:24.922Z,958.74
2018-08-25T02:07:25.656Z,958.72
2018-08-25T02:08:24.891Z,958.68
2018-08-25T02:09:24.868Z,958.68
2018-08-25T02:10:24.849Z,958.68
2018-08-25T02:11:24.831Z,958.68
2018-08-25T02:12:24.812Z,958.71
2018-08-25T02:13:24.795Z,958.73
2018-08-25T02:14:24.775Z,958.70
2018-08-25T02:15:24.755Z,958.74
2018-08-25T02:16:24.738Z,958.75
2018-08-25T02:17:24.720Z,958.75
2018-08-25T02:18:24.699Z,958.73
2018-08-25T02:19:24.683Z,958.76
2018-08-25T02:20:24.662Z,958.75
2018-08-25T02:21:24.644Z,958.71
2018-08-25T02:22:24.624Z,958.69
2018-08-25T02:23:24.605Z,958.67
2018-08-25T02:24:24.589Z,958.66
2018-08-25T02:25:24.568Z,958.65
2018-08-25T02:26:24.548Z,958.64
2018-08-25T02:27:24.530Z,958.64
2018-08-25T02:28:24.511Z,958.65
2018-08-25T02:29:24.492Z,958.64
2018-08-25T02:30:24.475Z,958.63
2018-08-25T02:31:24.456Z,958.61
2018-08-25T02:32:24.435Z,958.62
2018-08-25T02:33:24.431Z,958.64
2018-08-25T02:34:24.399Z,958.58
2018-08-25T02:35:24.380Z,958.57
2018-08-25T02:36:24.362Z,958.62
2018-08-25T02:37:24.343Z,958.61
2018-08-25T02:38:24.327Z,958.63
2018-08-25T02:39:24.305Z,958.63
2018-08-25T02:40:25.037Z,958.63
2018-08-25T02:41:24.267Z,958.62
2018-08-25T02:42:24.247Z,958.63
2018-08-25T02:43:24.229Z,958.60
2018-08-25T02:44:24.210Z,958.58
2018-08-25T02:45:24.197Z,958.57
2018-08-25T02:46:24.172Z,958.57
2018-08-25T02:47:24.154Z,958.57
2018-08-25T02:48:24.138Z,958.62
2018-08-25T02:49:24.116Z,958.62
2018-08-25T02:50:24.096Z,958.60
2018-08-25T02:51:24.078Z,958.58
2018-08-25T02:52:24.058Z,958.56
2018-08-25T02:53:24.040Z,958.52
2018-08-25T02:54:24.024Z,958.53
2018-08-25T02:55:24.002Z,958.55
2018-08-25T02:56:23.983Z,958.51
2018-08-25T02:57:23.964Z,958.45
2018-08-25T02:58:23.944Z,958.47
2018-08-25T02:59:23.925Z,958.49
2018-08-25T03:00:23.910Z,958.46
2018-08-25T03:01:23.889Z,958.47
2018-08-25T03:02:23.868Z,958.48
2018-08-25T03:03:23.850Z,958.47
2018-08-25T03:04:23.832Z,958.41
2018-08-25T03:05:23.813Z,958.46
2018-08-25T03:06:23.797Z,958.48
2018-08-25T03:07:23.773Z,958.49
2018-08-25T03:08:23.754Z,958.46
2018-08-25T03:09:23.738Z,958.43
2018-08-25T03:10:23.716Z,958.41
2018-08-25T03:11:23.699Z,958.42
2018-08-25T03:12:23.680Z,958.39
2018-08-25T03:13:23.661Z,958.36
2018-08-25T03:14:23.647Z,958.40
2018-08-25T03:15:23.622Z,958.40
2018-08-25T03:16:23.603Z,958.32
2018-08-25T03:17:23.585Z,958.33
2018-08-25T03:18:23.564Z,958.31
2018-08-25T03:19:23.547Z,958.31
2018-08-25T03:20:23.531Z,958.29
2018-08-25T03:21:23.508Z,958.29
2018-08-25T03:22:23.489Z,958.35
2018-08-25T03:23:23.470Z,958.36
2018-08-25T03:24:23.450Z,958.32
2018-08-25T03:25:23.433Z,958.31
2018-08-25T03:26:23.414Z,958.35
2018-08-25T03:27:23.394Z,958.33
2018-08-25T03:28:23.375Z,958.31
2018-08-25T03:29:23.357Z,958.37
2018-08-25T03:30:23.343Z,958.38
2018-08-25T03:31:23.317Z,958.41
2018-08-25T03:32:24.804Z,958.39
2018-08-25T03:33:23.280Z,958.40
2018-08-25T03:34:23.260Z,958.38
2018-08-25T03:35:23.240Z,958.39
2018-08-25T03:36:23.222Z,958.41
2018-08-25T03:37:23.206Z,958.39
2018-08-25T03:38:23.188Z,958.38
2018-08-25T03:39:23.165Z,958.39
2018-08-25T03:40:23.150Z,958.33
2018-08-25T03:41:23.127Z,958.32
2018-08-25T03:42:23.107Z,958.33
2018-08-25T03:43:23.088Z,958.33
2018-08-25T03:44:23.069Z,958.34
2018-08-25T03:45:23.050Z,958.31
2018-08-25T03:46:23.030Z,958.30
2018-08-25T03:47:23.011Z,958.29
2018-08-25T03:48:22.990Z,958.30
2018-08-25T03:49:24.474Z,958.26
2018-08-25T03:50:22.953Z,958.30
2018-08-25T03:51:22.933Z,958.29
2018-08-25T03:52:22.921Z,958.31
2018-08-25T03:53:22.896Z,958.29
2018-08-25T03:54:22.877Z,958.29
2018-08-25T03:55:22.914Z,958.25
2018-08-25T03:56:22.837Z,958.25
2018-08-25T03:57:22.819Z,958.22
2018-08-25T03:58:22.797Z,958.27
2018-08-25T03:59:22.778Z,958.26
2018-08-25T04:00:22.760Z,958.25
2018-08-25T04:01:22.743Z,958.23
2018-08-25T04:02:22.720Z,958.27
2018-08-25T04:03:22.701Z,958.23
2018-08-25T04:04:22.681Z,958.29
2018-08-25T04:05:22.665Z,958.30
2018-08-25T04:06:22.644Z,958.32
2018-08-25T04:07:22.625Z,958.32
2018-08-25T04:08:22.605Z,958.30
2018-08-25T04:09:22.587Z,958.34
2018-08-25T04:10:22.569Z,958.34
2018-08-25T04:11:24.049Z,958.33
2018-08-25T04:12:22.528Z,958.32
2018-08-25T04:13:22.510Z,958.28
2018-08-25T04:14:22.490Z,958.24
2018-08-25T04:15:22.470Z,958.23
2018-08-25T04:16:22.452Z,958.16
2018-08-25T04:17:22.433Z,958.19
2018-08-25T04:18:22.412Z,958.16
2018-08-25T04:19:22.393Z,958.17
2018-08-25T04:20:22.374Z,958.18
2018-08-25T04:21:22.359Z,958.17
2018-08-25T04:22:22.439Z,958.17
2018-08-25T04:23:22.317Z,958.18
2018-08-25T04:24:22.297Z,958.21
2018-08-25T04:25:22.278Z,958.20
2018-08-25T04:26:22.259Z,958.21
2018-08-25T04:27:22.239Z,958.16
2018-08-25T04:28:22.221Z,958.14
2018-08-25T04:29:22.200Z,958.14
2018-08-25T04:30:22.181Z,958.11
2018-08-25T04:31:22.221Z,958.11
2018-08-25T04:32:22.143Z,958.07
2018-08-25T04:33:22.135Z,958.09
2018-08-25T04:34:22.108Z,958.08
2018-08-25T04:35:22.084Z,958.04
2018-08-25T04:36:22.066Z,958.09
2018-08-25T04:37:22.049Z,958.04
2018-08-25T04:38:22.027Z,958.03
2018-08-25T04:39:22.007Z,958.03
2018-08-25T04:40:21.989Z,958.06
2018-08-25T04:41:22.061Z,958.03
2018-08-25T04:42:21.949Z,958.02
2018-08-25T04:43:21.931Z,957.99
2018-08-25T04:44:21.912Z,957.99
2018-08-25T04:45:21.892Z,958.00
2018-08-25T04:46:21.876Z,958.06
2018-08-25T04:47:21.854Z,958.07
2018-08-25T04:48:21.835Z,958.11
2018-08-25T04:49:21.816Z,958.10
2018-08-25T04:50:21.796Z,958.10
2018-08-25T04:51:21.776Z,958.10
2018-08-25T04:52:21.758Z,958.13
2018-08-25T04:53:21.739Z,958.12
2018-08-25T04:54:21.719Z,958.11
2018-08-25T04:55:21.700Z,958.12
2018-08-25T04:56:21.681Z,958.10
2018-08-25T04:57:21.662Z,958.10
2018-08-25T04:58:21.641Z,958.10
2018-08-25T04:59:21.622Z,958.08
2018-08-25T05:00:21.604Z,958.11
2018-08-25T05:01:21.584Z,958.14
2018-08-25T05:02:21.564Z,958.13
2018-08-25T05:03:21.550Z,958.10
2018-08-25T05:04:21.538Z,958.10
2018-08-25T05:05:21.509Z,958.08
2018-08-25T05:06:21.488Z,958.09
2018-08-25T05:07:21.476Z,958.09
2018-08-25T05:08:21.450Z,958.07
2018-08-25T05:09:21.431Z,958.08
2018-08-25T05:10:21.411Z,958.10
2018-08-25T05:11:21.392Z,958.04
2018-08-25T05:12:21.375Z,958.07
2018-08-25T05:13:21.353Z,958.07
2018-08-25T05:14:21.335Z,958.07
2018-08-25T05:15:21.320Z,958.03
2018-08-25T05:16:21.297Z,958.04
2018-08-25T05:17:21.278Z,958.04
2018-08-25T05:18:21.257Z,958.06
2018-08-25T05:19:21.239Z,958.05
2018-08-25T05:20:21.219Z,958.06
2018-08-25T05:21:21.205Z,958.10
2018-08-25T05:22:21.180Z,958.07
2018-08-25T05:23:21.162Z,958.08
2018-08-25T05:24:21.143Z,958.11
2018-08-25T05:25:21.123Z,958.06
2018-08-25T05:26:21.104Z,958.08
2018-08-25T05:27:21.085Z,958.11
2018-08-25T05:28:21.066Z,958.07
2018-08-25T05:29:21.047Z,958.08
2018-08-25T05:30:21.027Z,958.10
2018-08-25T05:31:21.007Z,958.11
2018-08-25T05:32:20.988Z,958.08
2018-08-25T05:33:20.968Z,958.08
2018-08-25T05:34:20.948Z,958.08
2018-08-25T05:35:20.929Z,958.07
2018-08-25T05:36:20.913Z,958.03
2018-08-25T05:37:20.893Z,958.04
2018-08-25T05:38:20.872Z,958.05
2018-08-25T05:39:20.853Z,958.01
2018-08-25T05:40:20.835Z,958.02
2018-08-25T05:41:20.816Z,958.00
2018-08-25T05:42:20.795Z,958.01
2018-08-25T05:43:20.776Z,958.06
2018-08-25T05:44:20.832Z,958.03
2018-08-25T05:45:20.741Z,958.01
2018-08-25T05:46:20.723Z,958.04
2018-08-25T05:47:20.701Z,957.96
2018-08-25T05:48:20.682Z,957.96
2018-08-25T05:49:20.664Z,957.95
2018-08-25T05:50:20.643Z,957.94
2018-08-25T05:51:20.625Z,957.93
2018-08-25T05:52:20.605Z,957.91
2018-08-25T05:53:20.587Z,957.94
2018-08-25T05:54:20.566Z,957.94
2018-08-25T05:55:20.553Z,957.99
2018-08-25T05:56:20.528Z,957.95
2018-08-25T05:57:20.511Z,957.98
2018-08-25T05:58:20.489Z,957.97
2018-08-25T05:59:20.473Z,957.98
2018-08-25T06:00:20.454Z,957.94
2018-08-25T06:01:20.434Z,958.00
2018-08-25T06:02:20.415Z,957.98
2018-08-25T06:03:20.396Z,957.99
2018-08-25T06:04:20.377Z,957.99
2018-08-25T06:05:20.360Z,958.00
2018-08-25T06:06:20.341Z,958.01
2018-08-25T06:07:20.321Z,958.01
2018-08-25T06:08:20.302Z,957.99
2018-08-25T06:09:20.283Z,958.00
2018-08-25T06:10:20.265Z,957.97
2018-08-25T06:11:20.245Z,957.98
2018-08-25T06:12:20.226Z,957.94
2018-08-25T06:13:20.238Z,957.92
2018-08-25T06:14:20.189Z,957.92
2018-08-25T06:15:20.169Z,957.90
2018-08-25T06:16:20.152Z,957.85
2018-08-25T06:17:20.137Z,957.88
2018-08-25T06:18:20.113Z,957.87
2018-08-25T06:19:20.179Z,957.87
2018-08-25T06:20:20.077Z,957.85
2018-08-25T06:21:20.059Z,957.88
2018-08-25T06:22:20.039Z,957.82
2018-08-25T06:23:20.020Z,957.88
2018-08-25T06:24:20.003Z,957.90
2018-08-25T06:25:19.985Z,957.90
2018-08-25T06:26:19.964Z,957.92
2018-08-25T06:27:19.948Z,957.93
2018-08-25T06:28:19.930Z,957.95
2018-08-25T06:29:19.910Z,957.96
2018-08-25T06:30:19.891Z,958.00
2018-08-25T06:31:19.871Z,957.95
2018-08-25T06:32:19.852Z,957.89
2018-08-25T06:33:19.835Z,957.93
2018-08-25T06:34:19.816Z,957.92
2018-08-25T06:35:19.798Z,957.95
2018-08-25T06:36:19.780Z,957.95
2018-08-25T06:37:19.761Z,957.95
2018-08-25T06:38:19.742Z,957.98
2018-08-25T06:39:19.721Z,957.97
2018-08-25T06:40:19.704Z,957.96
2018-08-25T06:41:19.685Z,957.99
2018-08-25T06:42:19.666Z,957.99
2018-08-25T06:43:19.647Z,957.96
2018-08-25T06:44:19.627Z,957.98
2018-08-25T06:45:19.610Z,957.94
2018-08-25T06:46:19.590Z,957.96
2018-08-25T06:47:19.589Z,957.94
2018-08-25T06:48:19.553Z,957.93
2018-08-25T06:49:19.535Z,957.97
2018-08-25T06:50:19.515Z,957.98
2018-08-25T06:51:19.497Z,957.92
2018-08-25T06:52:19.478Z,957.94
2018-08-25T06:53:19.468Z,957.92
2018-08-25T06:54:19.440Z,957.92
2018-08-25T06:55:19.421Z,957.94
2018-08-25T06:56:19.404Z,957.93
2018-08-25T06:57:19.384Z,957.98
2018-08-25T06:58:19.366Z,957.99
2018-08-25T06:59:19.360Z,957.99
2018-08-25T07:00:19.329Z,957.98
2018-08-25T07:01:19.310Z,957.92
2018-08-25T07:02:19.291Z,957.93
2018-08-25T07:03:19.272Z,957.90
2018-08-25T07:04:19.255Z,957.91
2018-08-25T07:05:19.236Z,957.93
2018-08-25T07:06:19.218Z,957.87
2018-08-25T07:07:19.200Z,957.90
2018-08-25T07:08:19.182Z,957.86
2018-08-25T07:09:19.164Z,957.89
2018-08-25T07:10:19.145Z,957.89
2018-08-25T07:11:19.127Z,957.88
2018-08-25T07:12:19.108Z,957.90
2018-08-25T07:13:19.090Z,957.87
2018-08-25T07:14:19.071Z,957.90
2018-08-25T07:15:19.053Z,957.89
2018-08-25T07:16:19.035Z,957.90
2018-08-25T07:17:19.019Z,957.98
2018-08-25T07:18:18.997Z,957.98
2018-08-25T07:19:18.979Z,958.03
2018-08-25T07:20:18.969Z,958.05
2018-08-25T07:21:18.946Z,958.05
2018-08-25T07:22:18.923Z,958.04
2018-08-25T07:23:18.905Z,958.03
2018-08-25T07:24:18.887Z,958.04
2018-08-25T07:25:18.868Z,958.02
2018-08-25T07:26:18.907Z,958.06
2018-08-25T07:27:18.831Z,958.07
2018-08-25T07:28:18.812Z,958.09
2018-08-25T07:29:18.794Z,958.09
2018-08-25T07:30:18.776Z,958.11
2018-08-25T07:31:18.756Z,958.05
2018-08-25T07:32:18.739Z,958.07
2018-08-25T07:33:18.718Z,958.13
2018-08-25T07:34:18.699Z,958.15
2018-08-25T07:35:18.681Z,958.17
2018-08-25T07:36:18.661Z,958.10
2018-08-25T07:37:18.642Z,958.07
2018-08-25T07:38:18.682Z,958.08
2018-08-25T07:39:18.605Z,958.08
2018-08-25T07:40:18.585Z,958.12
2018-08-25T07:41:18.568Z,958.11
2018-08-25T07:42:18.548Z,958.13
2018-08-25T07:43:18.528Z,958.12
2018-08-25T07:44:18.511Z,958.13
2018-08-25T07:45:18.582Z,958.11
2018-08-25T07:46:18.475Z,958.10
2018-08-25T07:47:18.454Z,958.08
2018-08-25T07:48:18.435Z,958.09
2018-08-25T07:49:18.419Z,958.09
2018-08-25T07:50:19.902Z,958.08
2018-08-25T07:51:18.379Z,958.11
2018-08-25T07:52:18.362Z,958.10
2018-08-25T07:53:18.342Z,958.07
2018-08-25T07:54:18.322Z,958.12
2018-08-25T07:55:18.303Z,958.11
2018-08-25T07:56:19.035Z,958.12
2018-08-25T07:57:18.270Z,958.20
2018-08-25T07:58:18.249Z,958.13
2018-08-25T07:59:18.287Z,958.13
2018-08-25T08:00:18.208Z,958.13
2018-08-25T08:01:18.190Z,958.10
2018-08-25T08:02:18.171Z,958.10
2018-08-25T08:03:18.152Z,958.09
2018-08-25T08:04:18.134Z,958.13
2018-08-25T08:05:18.116Z,958.18
2018-08-25T08:06:18.096Z,958.19
2018-08-25T08:07:18.077Z,958.23
2018-08-25T08:08:18.099Z,958.24
2018-08-25T08:09:18.040Z,958.29
2018-08-25T08:10:18.021Z,958.30
2018-08-25T08:11:18.001Z,958.31
2018-08-25T08:12:18.821Z,958.32
2018-08-25T08:13:17.965Z,958.35
2018-08-25T08:14:17.945Z,958.27
2018-08-25T08:15:17.929Z,958.34
2018-08-25T08:16:17.911Z,958.35
2018-08-25T08:17:17.892Z,958.30
2018-08-25T08:18:17.868Z,958.33
2018-08-25T08:19:17.850Z,958.31
2018-08-25T08:20:17.831Z,958.33
2018-08-25T08:21:17.812Z,958.30
2018-08-25T08:22:17.794Z,958.36
2018-08-25T08:23:17.776Z,958.35
2018-08-25T08:24:17.757Z,958.38
2018-08-25T08:25:17.738Z,958.34
2018-08-25T08:26:17.718Z,958.36
2018-08-25T08:27:17.700Z,958.37
2018-08-25T08:28:17.681Z,958.39
2018-08-25T08:29:17.662Z,958.38
2018-08-25T08:30:17.643Z,958.37
2018-08-25T08:31:17.624Z,958.40
2018-08-25T08:32:17.609Z,958.38
2018-08-25T08:33:17.587Z,958.37
2018-08-25T08:34:17.569Z,958.34
2018-08-25T08:35:17.548Z,958.41
2018-08-25T08:36:17.531Z,958.41
2018-08-25T08:37:17.512Z,958.42
2018-08-25T08:38:17.489Z,958.46
2018-08-25T08:39:17.511Z,958.47
2018-08-25T08:40:17.453Z,958.45
2018-08-25T08:41:17.435Z,958.44
2018-08-25T08:42:17.445Z,958.43
2018-08-25T08:43:17.396Z,958.42
2018-08-25T08:44:17.378Z,958.43
2018-08-25T08:45:17.419Z,958.49
2018-08-25T08:46:17.340Z,958.45
2018-08-25T08:47:17.349Z,958.45
2018-08-25T08:48:17.303Z,958.48
2018-08-25T08:49:18.034Z,958.50
2018-08-25T08:50:17.276Z,958.53
2018-08-25T08:51:17.250Z,958.58
2018-08-25T08:52:17.227Z,958.59
2018-08-25T08:53:17.210Z,958.60
2018-08-25T08:54:17.190Z,958.61
2018-08-25T08:55:17.171Z,958.58
2018-08-25T08:56:17.154Z,958.58
2018-08-25T08:57:17.136Z,958.59
2018-08-25T08:58:17.168Z,958.63
2018-08-25T08:59:17.100Z,958.62
2018-08-25T09:00:17.080Z,958.66
2018-08-25T09:01:17.062Z,958.72
2018-08-25T09:02:17.047Z,958.69
2018-08-25T09:03:17.044Z,958.69
2018-08-25T09:04:17.006Z,958.71
2018-08-25T09:05:19.241Z,958.74
2018-08-25T09:06:16.969Z,958.74
2018-08-25T09:07:16.951Z,958.75
2018-08-25T09:08:16.933Z,958.70
2018-08-25T09:09:16.915Z,958.71
2018-08-25T09:10:16.897Z,958.72
2018-08-25T09:11:16.888Z,958.80
2018-08-25T09:12:16.861Z,958.77
2018-08-25T09:13:16.843Z,958.75
2018-08-25T09:14:16.824Z,958.74
2018-08-25T09:15:16.806Z,958.69
2018-08-25T09:16:16.788Z,958.73
2018-08-25T09:17:16.771Z,958.72
2018-08-25T09:18:16.820Z,958.77
2018-08-25T09:19:16.763Z,958.72
2018-08-25T09:20:16.715Z,958.70
2018-08-25T09:21:16.699Z,958.73
2018-08-25T09:22:16.681Z,958.79
2018-08-25T09:23:16.661Z,958.71
2018-08-25T09:24:16.643Z,958.70
2018-08-25T09:25:16.625Z,958.72
2018-08-25T09:26:16.609Z,958.73
2018-08-25T09:27:16.614Z,958.79
2018-08-25T09:28:16.572Z,958.72
2018-08-25T09:29:16.559Z,958.75
2018-08-25T09:30:16.536Z,958.80
2018-08-25T09:31:16.520Z,958.76
2018-08-25T09:32:16.503Z,958.75
2018-08-25T09:33:16.484Z,958.72
2018-08-25T09:34:16.464Z,958.70
2018-08-25T09:35:16.447Z,958.73
2018-08-25T09:36:16.525Z,958.67
2018-08-25T09:37:17.913Z,958.72
2018-08-25T09:38:16.393Z,958.69
2018-08-25T09:39:16.374Z,958.69
2018-08-25T09:40:16.358Z,958.65
2018-08-25T09:41:16.340Z,958.71
2018-08-25T09:42:16.321Z,958.76
2018-08-25T09:43:18.556Z,958.71
2018-08-25T09:44:16.284Z,958.74
2018-08-25T09:45:16.267Z,958.69
2018-08-25T09:46:16.252Z,958.67
2018-08-25T09:47:16.229Z,958.72
2018-08-25T09:48:16.212Z,958.72
2018-08-25T09:49:16.949Z,958.77
2018-08-25T09:50:16.174Z,958.77
2018-08-25T09:51:16.157Z,958.76
2018-08-25T09:52:16.138Z,958.72
2018-08-25T09:53:16.121Z,958.69
2018-08-25T09:54:16.102Z,958.62
2018-08-25T09:55:16.084Z,958.65
2018-08-25T09:56:16.067Z,958.65
2018-08-25T09:57:16.049Z,958.63
2018-08-25T09:58:16.029Z,958.60
2018-08-25T09:59:16.013Z,958.59
2018-08-25T10:00:16.745Z,958.65
2018-08-25T10:01:15.979Z,958.61
2018-08-25T10:02:15.956Z,958.67
2018-08-25T10:03:15.938Z,958.76
2018-08-25T10:04:15.921Z,958.77
2018-08-25T10:05:15.968Z,958.70
2018-08-25T10:06:15.892Z,958.81
2018-08-25T10:07:15.867Z,958.82
2018-08-25T10:08:15.851Z,958.87
2018-08-25T10:09:15.829Z,958.81
2018-08-25T10:10:15.810Z,958.84
2018-08-25T10:11:15.793Z,958.82
2018-08-25T10:12:15.773Z,958.82
2018-08-25T10:13:15.756Z,958.83
2018-08-25T10:14:15.736Z,958.88
2018-08-25T10:15:15.718Z,958.86
2018-08-25T10:16:15.710Z,958.86
2018-08-25T10:17:15.681Z,958.86
2018-08-25T10:18:15.668Z,958.88
2018-08-25T10:19:15.647Z,958.90
2018-08-25T10:20:15.625Z,958.86
2018-08-25T10:21:15.607Z,958.86
2018-08-25T10:22:15.587Z,958.97
2018-08-25T10:23:15.627Z,958.93
2018-08-25T10:24:15.553Z,958.91
2018-08-25T10:25:15.532Z,958.89
2018-08-25T10:26:15.511Z,958.92
2018-08-25T10:27:15.492Z,958.90
2018-08-25T10:28:15.474Z,958.90
2018-08-25T10:29:15.457Z,958.90
2018-08-25T10:30:15.436Z,958.94
2018-08-25T10:31:15.417Z,958.93
2018-08-25T10:32:15.400Z,958.99
2018-08-25T10:33:15.379Z,958.91
2018-08-25T10:34:15.364Z,958.94
2018-08-25T10:35:15.343Z,958.97
2018-08-25T10:36:15.324Z,959.02
2018-08-25T10:37:15.306Z,959.10
2018-08-25T10:38:16.037Z,959.01
2018-08-25T10:39:15.274Z,959.04
2018-08-25T10:40:15.252Z,959.00
2018-08-25T10:41:15.229Z,959.08
2018-08-25T10:42:15.238Z,959.12
2018-08-25T10:43:15.191Z,959.12
2018-08-25T10:44:15.170Z,959.13
2018-08-25T10:45:15.152Z,959.14
2018-08-25T10:46:15.133Z,959.09
2018-08-25T10:47:15.113Z,959.14
2018-08-25T10:48:15.177Z,959.11
2018-08-25T10:49:15.075Z,959.14
2018-08-25T10:50:15.056Z,959.18
2018-08-25T10:51:15.039Z,959.19
2018-08-25T10:52:15.018Z,959.19
2018-08-25T10:53:14.998Z,959.16
2018-08-25T10:54:14.979Z,959.23
2018-08-25T10:55:15.011Z,959.16
2018-08-25T10:56:14.942Z,959.14
2018-08-25T10:57:14.922Z,959.18
2018-08-25T10:58:14.902Z,959.11
2018-08-25T10:59:14.883Z,959.13
2018-08-25T11:00:14.941Z,959.09
2018-08-25T11:01:14.900Z,959.12
2018-08-25T11:02:14.826Z,959.09
2018-08-25T11:03:14.806Z,959.16
2018-08-25T11:04:14.788Z,959.09
2018-08-25T11:05:14.769Z,959.13
2018-08-25T11:06:14.749Z,959.09
2018-08-25T11:07:14.730Z,959.10
2018-08-25T11:08:14.711Z,959.14
2018-08-25T11:09:14.691Z,959.14
2018-08-25T11:10:17.674Z,959.07
2018-08-25T11:11:14.653Z,959.08
2018-08-25T11:12:14.634Z,959.11
2018-08-25T11:13:14.613Z,959.12
2018-08-25T11:14:14.593Z,959.10
2018-08-25T11:15:14.576Z,959.09
2018-08-25T11:16:19.149Z,959.14
2018-08-25T11:17:14.537Z,959.10
2018-08-25T11:18:14.516Z,959.07
2018-08-25T11:19:14.497Z,959.08
2018-08-25T11:20:14.479Z,959.09
2018-08-25T11:21:14.459Z,959.13
2018-08-25T11:22:16.690Z,959.11
2018-08-25T11:23:14.417Z,959.13
2018-08-25T11:24:14.399Z,959.11
2018-08-25T11:25:14.378Z,959.12
2018-08-25T11:26:14.358Z,959.09
2018-08-25T11:27:14.342Z,959.07
2018-08-25T11:28:14.321Z,959.09
2018-08-25T11:29:14.310Z,959.05
2018-08-25T11:30:14.283Z,959.07
2018-08-25T11:31:14.260Z,959.05
2018-08-25T11:32:14.240Z,959.07
2018-08-25T11:33:14.221Z,959.05
2018-08-25T11:34:14.199Z,959.04
2018-08-25T11:35:14.179Z,959.06
2018-08-25T11:36:14.161Z,959.04
2018-08-25T11:37:14.214Z,959.01
2018-08-25T11:38:14.120Z,959.03
2018-08-25T11:39:15.605Z,959.02
2018-08-25T11:40:14.079Z,958.98
2018-08-25T11:41:14.061Z,958.98
2018-08-25T11:42:14.039Z,958.98
2018-08-25T11:43:14.020Z,959.00
2018-08-25T11:44:14.001Z,958.97
2018-08-25T11:45:13.982Z,958.94
2018-08-25T11:46:13.961Z,958.99
2018-08-25T11:47:13.942Z,958.95
2018-08-25T11:48:13.922Z,958.95
2018-08-25T11:49:13.900Z,959.01
2018-08-25T11:50:13.879Z,958.97
2018-08-25T11:51:13.861Z,958.97
2018-08-25T11:52:13.840Z,958.96
2018-08-25T11:53:13.822Z,958.96
2018-08-25T11:54:13.802Z,958.96
2018-08-25T11:55:13.780Z,958.95
2018-08-25T11:56:13.760Z,958.91
2018-08-25T11:57:13.745Z,958.91
2018-08-25T11:58:13.720Z,958.85
2018-08-25T11:59:13.707Z,958.87
2018-08-25T12:00:13.685Z,958.87
2018-08-25T12:01:13.662Z,958.80
2018-08-25T12:02:13.709Z,958.82
2018-08-25T12:03:13.627Z,958.88
2018-08-25T12:04:13.604Z,958.88
2018-08-25T12:05:13.584Z,958.83
2018-08-25T12:06:13.566Z,958.80
2018-08-25T12:07:13.546Z,958.86
2018-08-25T12:08:13.523Z,958.91
2018-08-25T12:09:13.505Z,958.87
2018-08-25T12:10:13.483Z,958.84
2018-08-25T12:11:13.465Z,958.83
2018-08-25T12:12:13.445Z,958.87
2018-08-25T12:13:13.426Z,958.86
2018-08-25T12:14:13.406Z,958.87
2018-08-25T12:15:13.386Z,958.88
2018-08-25T12:16:13.391Z,958.84
2018-08-25T12:17:17.100Z,958.83
2018-08-25T12:18:13.324Z,958.79
2018-08-25T12:19:13.307Z,958.79
2018-08-25T12:20:13.286Z,958.82
2018-08-25T12:21:13.266Z,958.83
2018-08-25T12:22:13.247Z,958.78
2018-08-25T12:23:17.732Z,958.80
2018-08-25T12:24:13.236Z,958.83
2018-08-25T12:25:13.188Z,958.80
2018-08-25T12:26:13.168Z,958.82
2018-08-25T12:27:13.150Z,958.84
2018-08-25T12:28:13.128Z,958.85